(°C)
10°
(°C)
ESE
ESE
SE
SE
SE
SE
SSW
(كم/سا)
6-20
6-20
6-20
6-17
4-17
5-18
5-22
(مم)
1
2.9
0
0
0
0
2.6
(%)
99
99
79
73
66
63
67

مستوى ارتفاع الشمس

/ -38°
sun-icon
UV 1
07:32
17:15
الربع الأخير (270°)
00:00
13:35

متر لIoánnina (LGIO)

الوقت الشروط درجة الحرارة/
نقطة الندى
رياح مجال رؤية حالة الطقس غيوم الضغط تغيير خام
10°C / 8°C 150º 5kt Light Rain 1.00mm precipitation Vertical Visibility of 0ft. 1006 - LGIO 271750Z AUTO 15005KT //// -RA ////// 10/08 Q1006 RE//
10°C / 8°C 160º variable 100º to 180º 5kt Light Rain 1.00mm precipitation Vertical Visibility of 0ft. 1006 - LGIO 271720Z AUTO 16005KT 100V180 //// -RA ////// 10/08 Q1006 RE//
10°C / 8°C 140º variable 120º to 180º 6kt Light Rain 1.00mm precipitation Vertical Visibility of 0ft. 1006 - LGIO 271650Z AUTO 14006KT 120V180 //// -RA ////// 10/08 Q1006 RE//
10°C / 8°C 120º variable 100º to 160º 5kt Light Rain 1.00mm precipitation Vertical Visibility of 0ft. 1007 - LGIO 271620Z AUTO 12005KT 100V160 //// -RA ////// 10/08 Q1007 RE//
10°C / 8°C 150º 7kt Light Rain 1.00mm precipitation Vertical Visibility of 0ft. 1007 - LGIO 271550Z AUTO 15007KT //// -RA ////// 10/08 Q1007 RE//
10°C / 8°C 130º variable 110º to 170º 6kt Light Rain 1.00mm precipitation Vertical Visibility of 0ft. 1007 - LGIO 271520Z AUTO 13006KT 110V170 //// -RA ////// 10/08 Q1007 RE//
11°C / 9°C 140º variable 110º to 170º 10kt Light Rain 1.00mm precipitation Vertical Visibility of 0ft. 1007 - LGIO 271450Z AUTO 14010KT 110V170 //// -RA ////// 11/09 Q1007 RE//
11°C / 9°C 150º 4kt - 1007 - LGIO 271420Z AUTO 15004KT //// // ////// 11/09 Q1007 RE//
11°C / 8°C 150º variable 140º to 200º 5kt - 1007 - LGIO 271350Z AUTO 15005KT 140V200 //// // ////// 11/08 Q1007 RE//
11°C / 9°C variable 3kt Light Rain 1.00mm precipitation Vertical Visibility of 0ft. 1007 - LGIO 271320Z AUTO VRB03KT //// -RA ////// 11/09 Q1007 RE//
11°C / 9°C variable 2kt - 1007 - LGIO 271250Z AUTO VRB02KT //// // ////// 11/09 Q1007 RERA
VFR 10°C / 9°C 100º 1kt >10km Light Rain 1.00mm precipitation Vertical Visibility of 0ft.
Overcast 7000ft
1008 - LGIO 271220Z 10001KT 9999 -RA SCT030 OVC070 10/09 Q1008
VFR 10°C / 9°C 200º variable 170º to 240º 4kt >10km - Scattered Clouds 3000ft
Overcast 7000ft
1008 - LGIO 271150Z 20004KT 170V240 9999 SCT030 OVC070 10/09 Q1008
VFR 10°C / 8°C 40º variable 300º to 060º 4kt >10km Light Rain 1.00mm precipitation Vertical Visibility of 0ft.
Overcast 7000ft
1008 - LGIO 271120Z 04004KT 300V060 9999 -RA SCT030 OVC070 10/08 Q1008
MVFR 10°C / 8°C variable 4kt 8000m Light Rain 1.00mm precipitation Vertical Visibility of 0ft.
Broken Clouds 3500ft
Overcast 7000ft
1009 - LGIO 271050Z VRB04KT 8000 -RA FEW020CB BKN035 OVC070 10/08 Q1009
VFR 11°C / 9°C variable 4kt >10km Light Rain 1.00mm precipitation Vertical Visibility of 0ft.
Broken Clouds 7000ft
1009 - LGIO 271020Z VRB04KT 9999 -RA SCT020 BKN070 11/09 Q1009
VFR 12°C / 9°C 150º variable 120º to 190º 7kt >10km - Scattered Clouds 3000ft
Scattered Clouds 7000ft
1009 - LGIO 270950Z 15007KT 120V190 9999 SCT030 SCT070 12/09 Q1009
VFR 12°C / 10°C 100º 9kt >10km - Scattered Clouds 3000ft
Scattered Clouds 7000ft
1009 - LGIO 270920Z 10009KT 9999 SCT030 SCT070 12/10 Q1009
VFR 13°C / 11°C 140º variable 110º to 170º 4kt >10km Light Rain 1.00mm precipitation Vertical Visibility of 0ft.
Scattered Clouds 3000ft
1009 - LGIO 270850Z 14004KT 110V170 9999 -RA FEW015 SCT030 13/11 Q1009
VFR 12°C / 11°C 160º 2kt >10km Light Rain 1.00mm precipitation Vertical Visibility of 0ft.
Scattered Clouds 7000ft
1009 - LGIO 270820Z 16002KT 9999 -RA SCT030 SCT070 12/11 Q1009
VFR 12°C / 10°C 150º variable 110º to 180º 5kt >10km Light Rain 1.00mm precipitation Vertical Visibility of 0ft.
Scattered Clouds 7000ft
1009 - LGIO 270750Z 15005KT 110V180 9999 -RA SCT030 SCT070 12/10 Q1009
VFR 12°C / 10°C 150º 5kt >10km - Few Clouds 2500ft
Scattered Clouds 3000ft
1009 - LGIO 270720Z 15005KT 9999 FEW025TCU SCT030 12/10 Q1009
VFR 12°C / 10°C 140º 6kt >10km - Few Clouds 1800ft
Scattered Clouds 2000ft
1009 - LGIO 270650Z 14006KT 9999 FEW018TCU SCT020 12/10 Q1009
MVFR 10°C / 10°C 80º 1kt >10km - Broken Clouds 2000ft 1009 - LGIO 270620Z 08001KT 9999 BKN020 10/10 Q1009

10°C / 8°C

[أكثر]
رياح 150º 5kt
مجال رؤية
حالة الطقس Light Rain 1.00mm precipitation
غيوم Vertical Visibility of 0ft.
الضغط 1006
تغيير -
خام LGIO 271750Z AUTO 15005KT //// -RA ////// 10/08 Q1006 RE//

10°C / 8°C

[أكثر]
رياح 160º variable 100º to 180º 5kt
مجال رؤية
حالة الطقس Light Rain 1.00mm precipitation
غيوم Vertical Visibility of 0ft.
الضغط 1006
تغيير -
خام LGIO 271720Z AUTO 16005KT 100V180 //// -RA ////// 10/08 Q1006 RE//

10°C / 8°C

[أكثر]
رياح 140º variable 120º to 180º 6kt
مجال رؤية
حالة الطقس Light Rain 1.00mm precipitation
غيوم Vertical Visibility of 0ft.
الضغط 1006
تغيير -
خام LGIO 271650Z AUTO 14006KT 120V180 //// -RA ////// 10/08 Q1006 RE//

10°C / 8°C

[أكثر]
رياح 120º variable 100º to 160º 5kt
مجال رؤية
حالة الطقس Light Rain 1.00mm precipitation
غيوم Vertical Visibility of 0ft.
الضغط 1007
تغيير -
خام LGIO 271620Z AUTO 12005KT 100V160 //// -RA ////// 10/08 Q1007 RE//

10°C / 8°C

[أكثر]
رياح 150º 7kt
مجال رؤية
حالة الطقس Light Rain 1.00mm precipitation
غيوم Vertical Visibility of 0ft.
الضغط 1007
تغيير -
خام LGIO 271550Z AUTO 15007KT //// -RA ////// 10/08 Q1007 RE//

10°C / 8°C

[أكثر]
رياح 130º variable 110º to 170º 6kt
مجال رؤية
حالة الطقس Light Rain 1.00mm precipitation
غيوم Vertical Visibility of 0ft.
الضغط 1007
تغيير -
خام LGIO 271520Z AUTO 13006KT 110V170 //// -RA ////// 10/08 Q1007 RE//

11°C / 9°C

[أكثر]
رياح 140º variable 110º to 170º 10kt
مجال رؤية
حالة الطقس Light Rain 1.00mm precipitation
غيوم Vertical Visibility of 0ft.
الضغط 1007
تغيير -
خام LGIO 271450Z AUTO 14010KT 110V170 //// -RA ////// 11/09 Q1007 RE//

11°C / 9°C

[أكثر]
رياح 150º 4kt
مجال رؤية
حالة الطقس -
غيوم
الضغط 1007
تغيير -
خام LGIO 271420Z AUTO 15004KT //// // ////// 11/09 Q1007 RE//

11°C / 8°C

[أكثر]
رياح 150º variable 140º to 200º 5kt
مجال رؤية
حالة الطقس -
غيوم
الضغط 1007
تغيير -
خام LGIO 271350Z AUTO 15005KT 140V200 //// // ////// 11/08 Q1007 RE//

11°C / 9°C

[أكثر]
رياح variable 3kt
مجال رؤية
حالة الطقس Light Rain 1.00mm precipitation
غيوم Vertical Visibility of 0ft.
الضغط 1007
تغيير -
خام LGIO 271320Z AUTO VRB03KT //// -RA ////// 11/09 Q1007 RE//

11°C / 9°C

[أكثر]
رياح variable 2kt
مجال رؤية
حالة الطقس -
غيوم
الضغط 1007
تغيير -
خام LGIO 271250Z AUTO VRB02KT //// // ////// 11/09 Q1007 RERA

VFR

10°C / 9°C

[أكثر]
رياح 100º 1kt
مجال رؤية >10km
حالة الطقس Light Rain 1.00mm precipitation
غيوم Vertical Visibility of 0ft.
Overcast 7000ft
الضغط 1008
تغيير -
خام LGIO 271220Z 10001KT 9999 -RA SCT030 OVC070 10/09 Q1008

VFR

10°C / 9°C

[أكثر]
رياح 200º variable 170º to 240º 4kt
مجال رؤية >10km
حالة الطقس -
غيوم Scattered Clouds 3000ft
Overcast 7000ft
الضغط 1008
تغيير -
خام LGIO 271150Z 20004KT 170V240 9999 SCT030 OVC070 10/09 Q1008

VFR

10°C / 8°C

[أكثر]
رياح 40º variable 300º to 060º 4kt
مجال رؤية >10km
حالة الطقس Light Rain 1.00mm precipitation
غيوم Vertical Visibility of 0ft.
Overcast 7000ft
الضغط 1008
تغيير -
خام LGIO 271120Z 04004KT 300V060 9999 -RA SCT030 OVC070 10/08 Q1008

MVFR

10°C / 8°C

[أكثر]
رياح variable 4kt
مجال رؤية 8000m
حالة الطقس Light Rain 1.00mm precipitation
غيوم Vertical Visibility of 0ft.
Broken Clouds 3500ft
Overcast 7000ft
الضغط 1009
تغيير -
خام LGIO 271050Z VRB04KT 8000 -RA FEW020CB BKN035 OVC070 10/08 Q1009

VFR

11°C / 9°C

[أكثر]
رياح variable 4kt
مجال رؤية >10km
حالة الطقس Light Rain 1.00mm precipitation
غيوم Vertical Visibility of 0ft.
Broken Clouds 7000ft
الضغط 1009
تغيير -
خام LGIO 271020Z VRB04KT 9999 -RA SCT020 BKN070 11/09 Q1009

VFR

12°C / 9°C

[أكثر]
رياح 150º variable 120º to 190º 7kt
مجال رؤية >10km
حالة الطقس -
غيوم Scattered Clouds 3000ft
Scattered Clouds 7000ft
الضغط 1009
تغيير -
خام LGIO 270950Z 15007KT 120V190 9999 SCT030 SCT070 12/09 Q1009

VFR

12°C / 10°C

[أكثر]
رياح 100º 9kt
مجال رؤية >10km
حالة الطقس -
غيوم Scattered Clouds 3000ft
Scattered Clouds 7000ft
الضغط 1009
تغيير -
خام LGIO 270920Z 10009KT 9999 SCT030 SCT070 12/10 Q1009

VFR

13°C / 11°C

[أكثر]
رياح 140º variable 110º to 170º 4kt
مجال رؤية >10km
حالة الطقس Light Rain 1.00mm precipitation
غيوم Vertical Visibility of 0ft.
Scattered Clouds 3000ft
الضغط 1009
تغيير -
خام LGIO 270850Z 14004KT 110V170 9999 -RA FEW015 SCT030 13/11 Q1009

VFR

12°C / 11°C

[أكثر]
رياح 160º 2kt
مجال رؤية >10km
حالة الطقس Light Rain 1.00mm precipitation
غيوم Vertical Visibility of 0ft.
Scattered Clouds 7000ft
الضغط 1009
تغيير -
خام LGIO 270820Z 16002KT 9999 -RA SCT030 SCT070 12/11 Q1009

VFR

12°C / 10°C

[أكثر]
رياح 150º variable 110º to 180º 5kt
مجال رؤية >10km
حالة الطقس Light Rain 1.00mm precipitation
غيوم Vertical Visibility of 0ft.
Scattered Clouds 7000ft
الضغط 1009
تغيير -
خام LGIO 270750Z 15005KT 110V180 9999 -RA SCT030 SCT070 12/10 Q1009

VFR

12°C / 10°C

[أكثر]
رياح 150º 5kt
مجال رؤية >10km
حالة الطقس -
غيوم Few Clouds 2500ft
Scattered Clouds 3000ft
الضغط 1009
تغيير -
خام LGIO 270720Z 15005KT 9999 FEW025TCU SCT030 12/10 Q1009

VFR

12°C / 10°C

[أكثر]
رياح 140º 6kt
مجال رؤية >10km
حالة الطقس -
غيوم Few Clouds 1800ft
Scattered Clouds 2000ft
الضغط 1009
تغيير -
خام LGIO 270650Z 14006KT 9999 FEW018TCU SCT020 12/10 Q1009

MVFR

10°C / 10°C

[أكثر]
رياح 80º 1kt
مجال رؤية >10km
حالة الطقس -
غيوم Broken Clouds 2000ft
الضغط 1009
تغيير -
خام LGIO 270620Z 08001KT 9999 BKN020 10/10 Q1009

انقر لIoánnina (LGIO)

From till


From till Wind variable 3kt. Visibility 10km or more. Few Clouds 800ft. Broken Clouds 2500ft. Broken Clouds 8000ft.
With 40% probability, Temporarly from till Visibility 3000m. Thunderstorm Rain . Scattered Clouds 400ft. Few Clouds 1600ft. Overcast 2000ft.
Temporarly from till Visibility 5000m. Rain .

خام: TAF LGIO 271700Z 2718/2803 VRB03KT 9999 FEW008 BKN025 BKN080 TEMPO 2718/2803 5000 RA PROB40 TEMPO 2718/2724 3000 TSRA SCT004 FEW016CB OVC020

صور الأقمار الصناعية الملتقطة و الأمطار حالياً لIoánnina, اليونان

المؤشر يدل على موقع Ioánnina. [أكثر]

تجمع صورة الأقمار الصناعية في الوقت الفعلي بين الضوء المرئي أثناء النهار والأشعة تحت الحمراء أثناء الليل. لا تبدو الصورة مظلمة ليلاً، لأن الأشعة تحت الحمراء يمكنها الكشف عن الاختلافات في درجة الحرارة. لسوء الحظ ، يصعب التمييز بين السحب المنخفضة والضباب ودرجات حرارة الأرض ، وبالتالي يمكن أن تكون الصور غير مرئية تقريبًا أثناء الليل. يتم تحديث صور الأقمار الصناعية Meteosat الخاصة بأوروبا في الوقت الفعلي كل 5 دقائق، بينما يتم تحديث صور GOES-16 / GOES-17 (أمريكا الشمالية والجنوبية) و Himawari (آسيا) كل 10 دقائق.

يقدر هطول الأمطار من الرادار والأقمار الصناعية. تقديرات هطول الأمطار ليلا من قبل الأقمار الصناعية هي أقل دقة من النهار. اللون البرتقالي يعبر الأماكن حيث تم الكشف عن البرق (أكثر من أوروبا).

حقوق النسخ 2021 EUMETSAT / meteoblue. بيانات البرق مقدمة من nowcast.

رادار وهطول الأمطار التنبؤ الآني لIoánnina

رذاذ
ضوء
معتدل
ثقيل
ثقيل جدا
وابل

مؤشر المكان يشير الى Ioánnina. تظهر في هذه الرسوم المتحركة هطول الامطار بالرادار للساعة الماضية, و توقعات 1h. رذاذ أو تساقط ثلوج خفيف قد يكون غير مرئي للرادار. كثافة هطول الأمطار مرمزة بالألوان وتتراوح من الأزرق الفاتح إلى البرتقالي.